sensor_id;sensor_type;location;lat;lon;timestamp;pressure;altitude;pressure_sealevel;temperature;humidity
70302;BME280;57706;56.326;43.882;2022-10-16T00:01:41;101970.97;;;4.25;74.42
70302;BME280;57706;56.326;43.882;2022-10-16T00:04:07;101968.25;;;4.27;74.69
70302;BME280;57706;56.326;43.882;2022-10-16T00:06:52;101973.16;;;4.49;73.59
70302;BME280;57706;56.326;43.882;2022-10-16T00:09:18;101982.53;;;4.52;73.63
70302;BME280;57706;56.326;43.882;2022-10-16T00:11:43;101976.44;;;4.53;73.45
70302;BME280;57706;56.326;43.882;2022-10-16T00:14:12;101976.59;;;4.50;73.47
70302;BME280;57706;56.326;43.882;2022-10-16T00:16:39;101979.44;;;4.45;73.71
70302;BME280;57706;56.326;43.882;2022-10-16T00:19:05;101971.22;;;4.53;73.69
70302;BME280;57706;56.326;43.882;2022-10-16T00:21:31;101978.03;;;4.72;73.13
70302;BME280;57706;56.326;43.882;2022-10-16T00:24:16;101978.97;;;4.71;72.93
70302;BME280;57706;56.326;43.882;2022-10-16T00:27:00;101975.91;;;4.78;72.80
70302;BME280;57706;56.326;43.882;2022-10-16T00:29:26;101986.50;;;4.91;72.04
70302;BME280;57706;56.326;43.882;2022-10-16T00:31:52;101988.31;;;5.05;71.87
70302;BME280;57706;56.326;43.882;2022-10-16T00:34:18;101995.03;;;5.09;71.40
70302;BME280;57706;56.326;43.882;2022-10-16T00:36:44;101989.34;;;5.03;71.59
70302;BME280;57706;56.326;43.882;2022-10-16T00:39:09;102000.50;;;5.05;71.71
70302;BME280;57706;56.326;43.882;2022-10-16T00:41:35;101997.44;;;4.98;72.04
70302;BME280;57706;56.326;43.882;2022-10-16T00:44:04;101994.63;;;4.85;72.54
70302;BME280;57706;56.326;43.882;2022-10-16T00:47:10;101994.03;;;4.96;72.42
70302;BME280;57706;56.326;43.882;2022-10-16T00:49:38;101993.72;;;5.02;72.18
70302;BME280;57706;56.326;43.882;2022-10-16T00:52:05;101994.38;;;5.06;72.14
70302;BME280;57706;56.326;43.882;2022-10-16T00:54:32;101994.81;;;4.98;72.24
70302;BME280;57706;56.326;43.882;2022-10-16T00:57:04;101997.59;;;4.79;73.20
70302;BME280;57706;56.326;43.882;2022-10-16T00:59:36;101992.22;;;4.98;72.72
70302;BME280;57706;56.326;43.882;2022-10-16T01:02:04;101999.94;;;5.00;72.53
70302;BME280;57706;56.326;43.882;2022-10-16T01:04:37;102000.25;;;4.93;72.87
70302;BME280;57706;56.326;43.882;2022-10-16T01:10:33;101995.97;;;4.92;73.09
70302;BME280;57706;56.326;43.882;2022-10-16T01:13:11;101999.38;;;4.94;73.15
70302;BME280;57706;56.326;43.882;2022-10-16T01:16:00;102002.97;;;4.76;74.12
70302;BME280;57706;56.326;43.882;2022-10-16T01:21:08;102004.31;;;4.99;73.27
70302;BME280;57706;56.326;43.882;2022-10-16T01:31:34;102003.03;;;4.90;73.31
70302;BME280;57706;56.326;43.882;2022-10-16T01:34:30;102010.88;;;4.74;74.08
70302;BME280;57706;56.326;43.882;2022-10-16T01:37:04;102005.50;;;4.77;74.26
70302;BME280;57706;56.326;43.882;2022-10-16T01:39:33;102007.34;;;4.91;73.60
70302;BME280;57706;56.326;43.882;2022-10-16T01:42:09;101999.97;;;4.84;73.64
70302;BME280;57706;56.326;43.882;2022-10-16T01:44:37;102003.31;;;4.86;74.05
70302;BME280;57706;56.326;43.882;2022-10-16T01:47:06;102004.31;;;4.83;74.18
70302;BME280;57706;56.326;43.882;2022-10-16T01:49:36;102004.31;;;4.83;74.14
70302;BME280;57706;56.326;43.882;2022-10-16T01:52:07;102007.66;;;5.01;73.28
70302;BME280;57706;56.326;43.882;2022-10-16T01:54:35;102007.50;;;4.88;73.78
70302;BME280;57706;56.326;43.882;2022-10-16T01:57:04;102007.84;;;4.82;73.97
70302;BME280;57706;56.326;43.882;2022-10-16T01:59:39;102019.53;;;4.75;74.59
70302;BME280;57706;56.326;43.882;2022-10-16T02:02:09;102016.81;;;4.92;73.93
70302;BME280;57706;56.326;43.882;2022-10-16T02:04:43;102015.56;;;5.00;73.76
70302;BME280;57706;56.326;43.882;2022-10-16T02:07:10;102011.69;;;5.07;73.42
70302;BME280;57706;56.326;43.882;2022-10-16T02:09:36;102014.69;;;5.15;72.88
70302;BME280;57706;56.326;43.882;2022-10-16T02:12:25;102019.56;;;5.21;72.86
70302;BME280;57706;56.326;43.882;2022-10-16T02:14:52;102019.84;;;5.01;73.61
70302;BME280;57706;56.326;43.882;2022-10-16T02:17:20;102021.94;;;5.10;73.25
70302;BME280;57706;56.326;43.882;2022-10-16T02:19:48;102028.31;;;5.20;72.99
70302;BME280;57706;56.326;43.882;2022-10-16T02:22:39;102033.34;;;5.23;73.00
70302;BME280;57706;56.326;43.882;2022-10-16T02:25:08;102030.88;;;5.36;72.50
70302;BME280;57706;56.326;43.882;2022-10-16T02:27:44;102026.81;;;5.16;73.43
70302;BME280;57706;56.326;43.882;2022-10-16T02:30:41;102027.31;;;5.07;74.11
70302;BME280;57706;56.326;43.882;2022-10-16T02:33:08;102031.44;;;5.11;73.95
70302;BME280;57706;56.326;43.882;2022-10-16T02:35:54;102033.53;;;5.20;73.76
70302;BME280;57706;56.326;43.882;2022-10-16T02:38:22;102040.25;;;5.24;73.73
70302;BME280;57706;56.326;43.882;2022-10-16T02:41:07;102035.22;;;5.21;73.77
70302;BME280;57706;56.326;43.882;2022-10-16T02:43:34;102032.09;;;5.31;73.45
70302;BME280;57706;56.326;43.882;2022-10-16T02:46:00;102034.03;;;5.27;73.61
70302;BME280;57706;56.326;43.882;2022-10-16T02:48:26;102036.91;;;5.22;73.93
70302;BME280;57706;56.326;43.882;2022-10-16T02:50:52;102042.63;;;5.13;74.41
70302;BME280;57706;56.326;43.882;2022-10-16T02:53:36;102035.56;;;5.15;74.49
70302;BME280;57706;56.326;43.882;2022-10-16T02:56:02;102037.41;;;5.13;74.67
70302;BME280;57706;56.326;43.882;2022-10-16T02:58:27;102037.06;;;5.19;74.69
70302;BME280;57706;56.326;43.882;2022-10-16T03:00:54;102034.03;;;5.27;74.49
70302;BME280;57706;56.326;43.882;2022-10-16T03:03:38;102039.72;;;5.34;73.96
70302;BME280;57706;56.326;43.882;2022-10-16T03:06:04;102038.28;;;5.44;73.49
70302;BME280;57706;56.326;43.882;2022-10-16T03:08:31;102040.09;;;5.28;74.03
70302;BME280;57706;56.326;43.882;2022-10-16T03:10:57;102040.56;;;5.34;74.13
70302;BME280;57706;56.326;43.882;2022-10-16T03:13:23;102043.25;;;5.33;74.23
70302;BME280;57706;56.326;43.882;2022-10-16T03:15:48;102046.25;;;5.41;73.99
70302;BME280;57706;56.326;43.882;2022-10-16T03:18:33;102054.44;;;5.35;74.27
70302;BME280;57706;56.326;43.882;2022-10-16T03:20:58;102041.72;;;5.45;73.87
70302;BME280;57706;56.326;43.882;2022-10-16T03:23:24;102045.13;;;5.61;73.41
70302;BME280;57706;56.326;43.882;2022-10-16T03:25:50;102042.97;;;5.68;73.10
70302;BME280;57706;56.326;43.882;2022-10-16T03:28:16;102049.13;;;5.67;72.96
70302;BME280;57706;56.326;43.882;2022-10-16T03:30:43;102037.13;;;5.64;72.96
70302;BME280;57706;56.326;43.882;2022-10-16T03:33:08;102047.84;;;5.74;72.68
70302;BME280;57706;56.326;43.882;2022-10-16T03:35:34;102048.75;;;5.59;73.32
70302;BME280;57706;56.326;43.882;2022-10-16T03:38:00;102059.19;;;5.59;73.38
70302;BME280;57706;56.326;43.882;2022-10-16T03:40:26;102057.50;;;5.58;73.67
70302;BME280;57706;56.326;43.882;2022-10-16T03:42:52;102058.25;;;5.60;73.58
70302;BME280;57706;56.326;43.882;2022-10-16T03:45:19;102053.91;;;5.75;72.82
70302;BME280;57706;56.326;43.882;2022-10-16T03:47:45;102057.84;;;5.51;74.22
70302;BME280;57706;56.326;43.882;2022-10-16T03:50:11;102054.94;;;5.72;73.26
70302;BME280;57706;56.326;43.882;2022-10-16T03:52:37;102059.59;;;5.82;72.84
70302;BME280;57706;56.326;43.882;2022-10-16T03:55:03;102065.91;;;5.63;73.57
70302;BME280;57706;56.326;43.882;2022-10-16T03:57:29;102069.25;;;5.65;74.04
70302;BME280;57706;56.326;43.882;2022-10-16T03:59:54;102069.50;;;5.91;72.95
70302;BME280;57706;56.326;43.882;2022-10-16T04:02:20;102067.25;;;5.85;73.38
70302;BME280;57706;56.326;43.882;2022-10-16T04:04:46;102079.66;;;5.81;73.43
70302;BME280;57706;56.326;43.882;2022-10-16T04:07:11;102069.75;;;6.17;71.82
70302;BME280;57706;56.326;43.882;2022-10-16T04:09:37;102080.03;;;6.20;71.70
70302;BME280;57706;56.326;43.882;2022-10-16T04:12:03;102075.63;;;6.06;72.04
70302;BME280;57706;56.326;43.882;2022-10-16T04:14:29;102073.63;;;5.95;72.79
70302;BME280;57706;56.326;43.882;2022-10-16T04:17:13;102077.06;;;5.96;72.42
70302;BME280;57706;56.326;43.882;2022-10-16T04:19:39;102075.94;;;5.85;73.02
70302;BME280;57706;56.326;43.882;2022-10-16T04:22:05;102072.84;;;5.78;73.59
70302;BME280;57706;56.326;43.882;2022-10-16T04:24:30;102065.38;;;5.72;73.57
70302;BME280;57706;56.326;43.882;2022-10-16T04:26:56;102076.16;;;5.66;73.80
70302;BME280;57706;56.326;43.882;2022-10-16T04:29:22;102085.00;;;5.63;73.87
70302;BME280;57706;56.326;43.882;2022-10-16T04:31:48;102075.13;;;5.38;75.08
70302;BME280;57706;56.326;43.882;2022-10-16T04:34:14;102087.66;;;5.47;74.72
70302;BME280;57706;56.326;43.882;2022-10-16T04:36:58;102085.97;;;5.46;74.79
70302;BME280;57706;56.326;43.882;2022-10-16T04:39:24;102084.97;;;5.33;75.61
70302;BME280;57706;56.326;43.882;2022-10-16T04:41:49;102076.50;;;5.60;75.11
70302;BME280;57706;56.326;43.882;2022-10-16T04:44:15;102090.78;;;5.69;74.31
70302;BME280;57706;56.326;43.882;2022-10-16T04:46:41;102084.09;;;5.48;75.29
70302;BME280;57706;56.326;43.882;2022-10-16T04:49:07;102082.44;;;5.47;75.01
70302;BME280;57706;56.326;43.882;2022-10-16T04:51:33;102096.78;;;5.24;76.46
70302;BME280;57706;56.326;43.882;2022-10-16T04:53:59;102103.22;;;5.33;76.01
70302;BME280;57706;56.326;43.882;2022-10-16T04:56:24;102104.50;;;5.26;76.48
70302;BME280;57706;56.326;43.882;2022-10-16T04:58:50;102109.56;;;5.29;76.65
70302;BME280;57706;56.326;43.882;2022-10-16T05:01:16;102106.53;;;5.20;76.97
70302;BME280;57706;56.326;43.882;2022-10-16T05:03:42;102109.38;;;5.32;76.46
70302;BME280;57706;56.326;43.882;2022-10-16T05:06:07;102100.63;;;5.33;76.43
70302;BME280;57706;56.326;43.882;2022-10-16T05:08:34;102103.50;;;5.59;75.51
70302;BME280;57706;56.326;43.882;2022-10-16T05:10:59;102109.59;;;5.90;74.40
70302;BME280;57706;56.326;43.882;2022-10-16T05:13:25;102103.41;;;6.22;73.18
70302;BME280;57706;56.326;43.882;2022-10-16T05:15:51;102105.00;;;6.68;71.57
70302;BME280;57706;56.326;43.882;2022-10-16T05:18:17;102109.19;;;6.99;69.90
70302;BME280;57706;56.326;43.882;2022-10-16T05:20:43;102113.63;;;7.39;68.64
70302;BME280;57706;56.326;43.882;2022-10-16T05:23:09;102111.34;;;7.75;66.90
70302;BME280;57706;56.326;43.882;2022-10-16T05:25:38;102116.81;;;7.85;66.18
70302;BME280;57706;56.326;43.882;2022-10-16T05:28:03;102115.75;;;8.01;64.43
70302;BME280;57706;56.326;43.882;2022-10-16T05:30:30;102114.09;;;7.99;65.25
70302;BME280;57706;56.326;43.882;2022-10-16T05:32:55;102118.28;;;8.41;64.04
70302;BME280;57706;56.326;43.882;2022-10-16T05:35:21;102110.38;;;8.93;62.17
70302;BME280;57706;56.326;43.882;2022-10-16T05:37:47;102107.81;;;9.29;60.91
70302;BME280;57706;56.326;43.882;2022-10-16T05:40:13;102106.72;;;9.44;59.73
70302;BME280;57706;56.326;43.882;2022-10-16T05:42:40;102102.13;;;9.59;59.62
70302;BME280;57706;56.326;43.882;2022-10-16T05:45:06;102107.28;;;9.36;60.96
70302;BME280;57706;56.326;43.882;2022-10-16T05:47:34;102110.22;;;9.56;59.56
70302;BME280;57706;56.326;43.882;2022-10-16T05:49:59;102115.78;;;9.76;59.34
70302;BME280;57706;56.326;43.882;2022-10-16T05:52:27;102112.41;;;9.74;58.96
70302;BME280;57706;56.326;43.882;2022-10-16T05:54:53;102119.91;;;10.14;57.86
70302;BME280;57706;56.326;43.882;2022-10-16T05:57:18;102116.31;;;12.77;51.61
70302;BME280;57706;56.326;43.882;2022-10-16T05:59:44;102115.50;;;14.80;45.43
70302;BME280;57706;56.326;43.882;2022-10-16T06:02:12;102108.06;;;14.66;45.47
70302;BME280;57706;56.326;43.882;2022-10-16T06:04:39;102108.44;;;15.17;45.23
70302;BME280;57706;56.326;43.882;2022-10-16T06:07:04;102111.56;;;14.56;44.72
70302;BME280;57706;56.326;43.882;2022-10-16T06:09:30;102106.69;;;13.37;47.66
70302;BME280;57706;56.326;43.882;2022-10-16T06:11:56;102117.84;;;12.38;49.94
70302;BME280;57706;56.326;43.882;2022-10-16T06:14:40;102117.75;;;11.76;52.03
70302;BME280;57706;56.326;43.882;2022-10-16T06:17:06;102118.63;;;11.44;53.39
70302;BME280;57706;56.326;43.882;2022-10-16T06:19:32;102117.53;;;10.91;54.74
70302;BME280;57706;56.326;43.882;2022-10-16T06:21:58;102109.19;;;10.74;55.18
70302;BME280;57706;56.326;43.882;2022-10-16T06:24:24;102121.09;;;9.99;57.76
70302;BME280;57706;56.326;43.882;2022-10-16T06:26:50;102118.50;;;10.10;57.22
70302;BME280;57706;56.326;43.882;2022-10-16T06:29:34;102119.41;;;9.98;57.71
70302;BME280;57706;56.326;43.882;2022-10-16T06:32:00;102120.44;;;9.48;59.50
70302;BME280;57706;56.326;43.882;2022-10-16T06:34:26;102126.13;;;9.42;59.90
70302;BME280;57706;56.326;43.882;2022-10-16T06:37:11;102128.88;;;9.16;61.18
70302;BME280;57706;56.326;43.882;2022-10-16T06:39:36;102128.94;;;8.90;62.50
70302;BME280;57706;56.326;43.882;2022-10-16T06:42:02;102138.97;;;9.09;61.56
70302;BME280;57706;56.326;43.882;2022-10-16T06:44:34;102126.13;;;9.17;61.28
70302;BME280;57706;56.326;43.882;2022-10-16T06:47:00;102126.47;;;9.37;60.75
70302;BME280;57706;56.326;43.882;2022-10-16T06:49:26;102119.69;;;9.34;60.94
70302;BME280;57706;56.326;43.882;2022-10-16T06:52:12;102125.84;;;9.09;61.73
70302;BME280;57706;56.326;43.882;2022-10-16T06:54:38;102118.84;;;9.09;61.76
70302;BME280;57706;56.326;43.882;2022-10-16T06:57:04;102119.59;;;9.23;61.47
70302;BME280;57706;56.326;43.882;2022-10-16T06:59:30;102122.94;;;9.25;61.85
70302;BME280;57706;56.326;43.882;2022-10-16T07:01:56;102116.88;;;9.25;62.18
70302;BME280;57706;56.326;43.882;2022-10-16T07:04:21;102131.19;;;9.45;61.12
70302;BME280;57706;56.326;43.882;2022-10-16T07:06:47;102130.47;;;9.43;61.23
70302;BME280;57706;56.326;43.882;2022-10-16T07:09:13;102121.34;;;9.35;61.15
70302;BME280;57706;56.326;43.882;2022-10-16T07:11:40;102119.69;;;9.34;61.82
70302;BME280;57706;56.326;43.882;2022-10-16T07:14:18;102132.69;;;9.60;60.45
70302;BME280;57706;56.326;43.882;2022-10-16T07:16:44;102138.47;;;9.77;59.89
70302;BME280;57706;56.326;43.882;2022-10-16T07:19:10;102141.44;;;9.72;59.61
70302;BME280;57706;56.326;43.882;2022-10-16T07:21:55;102137.84;;;9.73;59.59
70302;BME280;57706;56.326;43.882;2022-10-16T07:24:22;102146.91;;;9.69;59.76
70302;BME280;57706;56.326;43.882;2022-10-16T07:26:48;102143.00;;;9.50;60.58
70302;BME280;57706;56.326;43.882;2022-10-16T07:29:19;102141.88;;;9.42;60.60
70302;BME280;57706;56.326;43.882;2022-10-16T07:31:46;102139.22;;;15.00;46.87
70302;BME280;57706;56.326;43.882;2022-10-16T07:34:13;102133.59;;;19.64;35.73
70302;BME280;57706;56.326;43.882;2022-10-16T07:36:39;102130.81;;;21.15;33.36
70302;BME280;57706;56.326;43.882;2022-10-16T07:39:05;102133.59;;;23.25;29.33
70302;BME280;57706;56.326;43.882;2022-10-16T07:41:31;102122.50;;;23.55;27.86
70302;BME280;57706;56.326;43.882;2022-10-16T07:43:58;102124.56;;;26.24;25.32
70302;BME280;57706;56.326;43.882;2022-10-16T07:46:28;102132.19;;;26.46;24.36
70302;BME280;57706;56.326;43.882;2022-10-16T07:48:54;102129.44;;;26.64;23.27
70302;BME280;57706;56.326;43.882;2022-10-16T07:51:25;102133.09;;;25.33;25.11
70302;BME280;57706;56.326;43.882;2022-10-16T07:53:52;102120.19;;;27.98;23.15
70302;BME280;57706;56.326;43.882;2022-10-16T07:56:18;102124.84;;;28.56;21.77
70302;BME280;57706;56.326;43.882;2022-10-16T07:58:44;102124.31;;;26.44;23.26
70302;BME280;57706;56.326;43.882;2022-10-16T08:01:13;102118.16;;;26.86;23.16
70302;BME280;57706;56.326;43.882;2022-10-16T08:03:42;102118.31;;;28.11;22.03
70302;BME280;57706;56.326;43.882;2022-10-16T08:06:08;102122.97;;;29.99;20.07
70302;BME280;57706;56.326;43.882;2022-10-16T08:08:52;102122.03;;;29.88;20.18
70302;BME280;57706;56.326;43.882;2022-10-16T08:11:19;102109.53;;;30.86;19.08
70302;BME280;57706;56.326;43.882;2022-10-16T08:13:44;102114.16;;;30.86;19.16
70302;BME280;57706;56.326;43.882;2022-10-16T08:16:10;102115.00;;;31.72;18.16
70302;BME280;57706;56.326;43.882;2022-10-16T08:18:38;102103.91;;;30.38;18.85
70302;BME280;57706;56.326;43.882;2022-10-16T08:21:05;102111.91;;;31.15;17.74
70302;BME280;57706;56.326;43.882;2022-10-16T08:23:32;102107.19;;;30.40;18.94
70302;BME280;57706;56.326;43.882;2022-10-16T08:26:05;102110.16;;;28.98;19.59
70302;BME280;57706;56.326;43.882;2022-10-16T08:28:32;102110.41;;;29.13;20.55
70302;BME280;57706;56.326;43.882;2022-10-16T08:31:15;102102.88;;;28.52;20.07
70302;BME280;57706;56.326;43.882;2022-10-16T08:33:59;102100.63;;;27.67;21.49
70302;BME280;57706;56.326;43.882;2022-10-16T08:36:25;102104.19;;;26.47;22.82
70302;BME280;57706;56.326;43.882;2022-10-16T08:38:51;102102.16;;;24.06;25.56
70302;BME280;57706;56.326;43.882;2022-10-16T08:47:12;102110.47;;;23.10;27.30
70302;BME280;57706;56.326;43.882;2022-10-16T08:49:41;102098.34;;;24.73;24.99
70302;BME280;57706;56.326;43.882;2022-10-16T08:52:14;102093.22;;;27.03;22.27
70302;BME280;57706;56.326;43.882;2022-10-16T08:54:46;102096.88;;;27.44;21.73
70302;BME280;57706;56.326;43.882;2022-10-16T08:57:16;102089.94;;;27.48;21.40
70302;BME280;57706;56.326;43.882;2022-10-16T08:59:43;102095.81;;;27.21;21.78
70302;BME280;57706;56.326;43.882;2022-10-16T09:02:29;102083.16;;;27.58;21.57
70302;BME280;57706;56.326;43.882;2022-10-16T09:08:01;102090.97;;;31.54;18.32
70302;BME280;57706;56.326;43.882;2022-10-16T09:10:47;102091.00;;;28.70;19.95
70302;BME280;57706;56.326;43.882;2022-10-16T09:13:40;102093.59;;;28.19;20.87
70302;BME280;57706;56.326;43.882;2022-10-16T09:16:21;102087.56;;;31.79;18.02
70302;BME280;57706;56.326;43.882;2022-10-16T09:21:37;102091.59;;;30.85;17.64
70302;BME280;57706;56.326;43.882;2022-10-16T09:24:14;102089.94;;;29.57;19.13
70302;BME280;57706;56.326;43.882;2022-10-16T09:26:40;102090.72;;;30.74;18.30
70302;BME280;57706;56.326;43.882;2022-10-16T09:29:06;102080.16;;;31.59;17.84
70302;BME280;57706;56.326;43.882;2022-10-16T09:31:32;102087.25;;;31.22;18.01
70302;BME280;57706;56.326;43.882;2022-10-16T09:34:03;102085.03;;;29.99;18.88
70302;BME280;57706;56.326;43.882;2022-10-16T09:36:51;102085.91;;;29.03;19.43
70302;BME280;57706;56.326;43.882;2022-10-16T09:39:17;102080.38;;;29.72;18.98
70302;BME280;57706;56.326;43.882;2022-10-16T09:41:44;102083.94;;;30.49;18.64
70302;BME280;57706;56.326;43.882;2022-10-16T09:44:29;102081.66;;;31.93;17.44
70302;BME280;57706;56.326;43.882;2022-10-16T09:47:13;102078.81;;;32.57;15.98
70302;BME280;57706;56.326;43.882;2022-10-16T09:49:58;102084.47;;;32.34;16.11
70302;BME280;57706;56.326;43.882;2022-10-16T09:52:29;102080.66;;;33.08;15.81
70302;BME280;57706;56.326;43.882;2022-10-16T09:54:57;102077.84;;;31.35;16.84
70302;BME280;57706;56.326;43.882;2022-10-16T09:57:24;102078.78;;;32.77;15.89
70302;BME280;57706;56.326;43.882;2022-10-16T09:59:55;102079.63;;;32.62;15.77
70302;BME280;57706;56.326;43.882;2022-10-16T10:02:34;102076.28;;;34.39;14.72
70302;BME280;57706;56.326;43.882;2022-10-16T10:05:01;102087.19;;;31.12;16.58
70302;BME280;57706;56.326;43.882;2022-10-16T10:07:32;102077.56;;;31.85;16.42
70302;BME280;57706;56.326;43.882;2022-10-16T10:10:02;102065.19;;;32.93;15.68
70302;BME280;57706;56.326;43.882;2022-10-16T10:12:30;102078.84;;;33.74;14.52
70302;BME280;57706;56.326;43.882;2022-10-16T10:15:07;102074.88;;;33.51;14.70
70302;BME280;57706;56.326;43.882;2022-10-16T10:17:45;102067.31;;;33.93;14.18
70302;BME280;57706;56.326;43.882;2022-10-16T10:22:47;102067.09;;;32.98;15.11
70302;BME280;57706;56.326;43.882;2022-10-16T10:35:56;102051.31;;;32.63;15.14
70302;BME280;57706;56.326;43.882;2022-10-16T10:38:34;102061.44;;;28.64;19.15
70302;BME280;57706;56.326;43.882;2022-10-16T10:45:11;102061.19;;;23.25;24.61
70302;BME280;57706;56.326;43.882;2022-10-16T10:50:10;102057.03;;;23.63;24.61
70302;BME280;57706;56.326;43.882;2022-10-16T11:01:12;102070.22;;;25.08;23.05
70302;BME280;57706;56.326;43.882;2022-10-16T11:04:00;102065.59;;;25.60;22.10
70302;BME280;57706;56.326;43.882;2022-10-16T11:06:33;102065.34;;;23.21;25.18
70302;BME280;57706;56.326;43.882;2022-10-16T11:09:18;102058.72;;;23.57;24.92
70302;BME280;57706;56.326;43.882;2022-10-16T11:17:25;102076.13;;;26.78;20.85
70302;BME280;57706;56.326;43.882;2022-10-16T11:20:00;102070.31;;;27.89;19.87
70302;BME280;57706;56.326;43.882;2022-10-16T11:22:32;102066.84;;;28.64;19.06
70302;BME280;57706;56.326;43.882;2022-10-16T11:25:02;102073.19;;;27.70;20.05
70302;BME280;57706;56.326;43.882;2022-10-16T11:27:35;102079.06;;;28.66;18.94
70302;BME280;57706;56.326;43.882;2022-10-16T11:30:04;102074.84;;;28.41;18.87
70302;BME280;57706;56.326;43.882;2022-10-16T11:32:36;102066.56;;;26.21;21.22
70302;BME280;57706;56.326;43.882;2022-10-16T11:35:13;102066.28;;;24.72;23.10
70302;BME280;57706;56.326;43.882;2022-10-16T11:37:43;102065.03;;;24.74;23.35
70302;BME280;57706;56.326;43.882;2022-10-16T11:40:23;102067.59;;;26.70;21.16
70302;BME280;57706;56.326;43.882;2022-10-16T11:42:59;102075.84;;;25.25;22.36
70302;BME280;57706;56.326;43.882;2022-10-16T11:45:44;102064.47;;;23.27;24.96
70302;BME280;57706;56.326;43.882;2022-10-16T11:48:33;102071.59;;;20.53;28.56
70302;BME280;57706;56.326;43.882;2022-10-16T11:51:16;102073.31;;;19.02;31.16
70302;BME280;57706;56.326;43.882;2022-10-16T11:56:19;102068.28;;;18.03;33.20
70302;BME280;57706;56.326;43.882;2022-10-16T11:58:56;102064.22;;;17.34;34.64
70302;BME280;57706;56.326;43.882;2022-10-16T12:01:44;102071.59;;;16.64;35.95
70302;BME280;57706;56.326;43.882;2022-10-16T12:04:39;102078.00;;;17.05;35.62
70302;BME280;57706;56.326;43.882;2022-10-16T12:07:19;102070.09;;;16.62;36.26
70302;BME280;57706;56.326;43.882;2022-10-16T12:09:47;102070.28;;;16.26;37.05
70302;BME280;57706;56.326;43.882;2022-10-16T12:17:37;102069.53;;;16.42;37.11
70302;BME280;57706;56.326;43.882;2022-10-16T12:22:59;102061.84;;;14.88;40.69
70302;BME280;57706;56.326;43.882;2022-10-16T12:25:27;102064.28;;;14.71;41.00
70302;BME280;57706;56.326;43.882;2022-10-16T12:28:36;102069.84;;;14.50;41.57
70302;BME280;57706;56.326;43.882;2022-10-16T12:30:52;102064.47;;;14.60;41.40
70302;BME280;57706;56.326;43.882;2022-10-16T12:33:28;102068.81;;;14.33;41.77
70302;BME280;57706;56.326;43.882;2022-10-16T12:35:56;102066.09;;;14.99;41.17
70302;BME280;57706;56.326;43.882;2022-10-16T12:41:07;102060.53;;;14.92;41.01
70302;BME280;57706;56.326;43.882;2022-10-16T12:43:59;102060.69;;;17.75;35.56
70302;BME280;57706;56.326;43.882;2022-10-16T12:49:50;102059.13;;;19.93;31.70
70302;BME280;57706;56.326;43.882;2022-10-16T12:51:51;102058.59;;;20.65;30.43
70302;BME280;57706;56.326;43.882;2022-10-16T12:54:20;102055.38;;;20.02;31.06
70302;BME280;57706;56.326;43.882;2022-10-16T13:13:05;102060.53;;;14.18;41.39
70302;BME280;57706;56.326;43.882;2022-10-16T13:18:16;102060.28;;;13.54;43.61
70302;BME280;57706;56.326;43.882;2022-10-16T13:23:53;102072.75;;;13.32;44.03
70302;BME280;57706;56.326;43.882;2022-10-16T13:29:01;102068.00;;;12.86;45.55
70302;BME280;57706;56.326;43.882;2022-10-16T13:31:28;102081.91;;;12.37;46.36
70302;BME280;57706;56.326;43.882;2022-10-16T13:33:57;102082.41;;;12.00;47.42
70302;BME280;57706;56.326;43.882;2022-10-16T13:36:35;102082.09;;;11.72;48.61
70302;BME280;57706;56.326;43.882;2022-10-16T13:39:21;102077.69;;;11.40;49.44
70302;BME280;57706;56.326;43.882;2022-10-16T13:44:33;102086.84;;;11.24;50.90
70302;BME280;57706;56.326;43.882;2022-10-16T13:47:02;102080.94;;;11.11;51.43
70302;BME280;57706;56.326;43.882;2022-10-16T13:49:28;102083.63;;;10.77;52.27
70302;BME280;57706;56.326;43.882;2022-10-16T13:51:59;102076.13;;;10.72;52.19
70302;BME280;57706;56.326;43.882;2022-10-16T13:54:26;102082.69;;;10.66;53.14
70302;BME280;57706;56.326;43.882;2022-10-16T13:56:54;102080.78;;;10.57;53.40
70302;BME280;57706;56.326;43.882;2022-10-16T13:59:38;102084.84;;;10.27;53.83
70302;BME280;57706;56.326;43.882;2022-10-16T14:02:19;102084.81;;;10.04;55.19
70302;BME280;57706;56.326;43.882;2022-10-16T14:05:08;102086.97;;;10.22;55.07
70302;BME280;57706;56.326;43.882;2022-10-16T14:07:36;102084.69;;;10.05;55.07
70302;BME280;57706;56.326;43.882;2022-10-16T14:10:06;102087.38;;;9.81;55.92
70302;BME280;57706;56.326;43.882;2022-10-16T14:12:34;102085.47;;;9.83;56.26
70302;BME280;57706;56.326;43.882;2022-10-16T14:15:00;102087.09;;;9.61;56.69
70302;BME280;57706;56.326;43.882;2022-10-16T14:17:31;102097.59;;;9.61;57.18
70302;BME280;57706;56.326;43.882;2022-10-16T14:20:00;102084.69;;;9.58;57.10
70302;BME280;57706;56.326;43.882;2022-10-16T14:22:40;102090.41;;;9.88;56.87
70302;BME280;57706;56.326;43.882;2022-10-16T14:27:44;102086.81;;;9.89;56.67
70302;BME280;57706;56.326;43.882;2022-10-16T14:30:20;102086.91;;;9.87;56.75
70302;BME280;57706;56.326;43.882;2022-10-16T14:33:01;102084.28;;;9.76;57.22
70302;BME280;57706;56.326;43.882;2022-10-16T14:35:32;102091.75;;;9.58;57.77
70302;BME280;57706;56.326;43.882;2022-10-16T14:38:01;102086.72;;;9.55;57.95
70302;BME280;57706;56.326;43.882;2022-10-16T14:40:38;102085.84;;;9.43;58.46
70302;BME280;57706;56.326;43.882;2022-10-16T14:43:04;102098.22;;;9.41;58.35
70302;BME280;57706;56.326;43.882;2022-10-16T14:45:33;102091.03;;;9.31;58.60
70302;BME280;57706;56.326;43.882;2022-10-16T14:48:06;102091.63;;;9.35;58.71
70302;BME280;57706;56.326;43.882;2022-10-16T14:50:40;102086.84;;;9.29;58.70